Time;durP1;ratioP1;P1;durP2;ratioP2;P2;SDS_P1;SDS_P2;PMS_P1;PMS_P2;Temp;Humidity;BMP_temperature;BMP_pressure;BME280_temperature;BME280_humidity;BME280_pressure;Samples;Min_cycle;Max_cycle;Signal;HPM_P1;HPM_P2
2022/07/27 00:00:59;;;;;;;10.60;10.00;;;20.60;98.40;;;;;;4915270;29;20466;-71
2022/07/27 00:03:25;;;;;;;11.70;11.20;;;20.70;98.30;;;;;;4915430;29;20454;-71
2022/07/27 00:05:52;;;;;;;11.07;10.57;;;20.70;98.20;;;;;;4915198;29;20465;-71
2022/07/27 00:08:19;;;;;;;11.77;11.00;;;20.70;98.40;;;;;;4915364;29;20489;-72
2022/07/27 00:10:46;;;;;;;11.77;11.17;;;20.70;98.60;;;;;;4915104;29;20454;-70
2022/07/27 00:13:13;;;;;;;12.27;11.77;;;20.70;98.70;;;;;;4915313;29;20485;-71
2022/07/27 00:15:39;;;;;;;12.43;11.83;;;20.70;98.60;;;;;;4915553;29;20454;-71
2022/07/27 00:18:07;;;;;;;12.27;11.77;;;20.70;98.70;;;;;;4914966;29;20454;-72
2022/07/27 00:20:34;;;;;;;11.90;11.40;;;20.60;98.90;;;;;;4915235;29;20454;-73
2022/07/27 00:23:01;;;;;;;10.10;9.70;;;20.70;99.10;;;;;;4914829;29;20847;-73
2022/07/27 00:25:28;;;;;;;11.93;11.33;;;20.70;99.30;;;;;;4915145;29;20462;-72
2022/07/27 00:27:55;;;;;;;12.80;12.20;;;20.60;99.00;;;;;;4914919;29;21054;-73
2022/07/27 00:30:22;;;;;;;13.70;13.00;;;20.70;99.20;;;;;;4914952;29;20464;-72
2022/07/27 00:32:49;;;;;;;12.87;12.00;;;20.70;99.40;;;;;;4914850;29;20521;-72
2022/07/27 00:35:17;;;;;;;14.07;13.37;;;20.70;99.30;;;;;;4914837;29;20819;-71
2022/07/27 00:37:44;;;;;;;12.70;12.10;;;20.70;99.30;;;;;;4915104;29;20833;-71
2022/07/27 00:40:12;;;;;;;12.77;12.20;;;20.70;99.40;;;;;;4915134;29;20461;-71
2022/07/27 00:42:38;;;;;;;12.00;11.30;;;20.60;99.50;;;;;;4914949;29;20953;-72
2022/07/27 00:45:06;;;;;;;12.43;11.93;;;20.60;99.50;;;;;;4914897;29;20462;-72
2022/07/27 00:47:33;;;;;;;12.40;11.90;;;20.70;99.60;;;;;;4914927;29;20481;-71
2022/07/27 00:50:00;;;;;;;12.40;11.70;;;20.80;99.50;;;;;;4914752;29;20462;-71
2022/07/27 00:52:28;;;;;;;13.10;12.30;;;20.80;99.50;;;;;;4914992;29;20494;-71
2022/07/27 00:54:55;;;;;;;12.43;11.83;;;20.80;99.40;;;;;;4914895;29;20507;-72
2022/07/27 00:57:23;;;;;;;12.60;11.80;;;20.80;99.30;;;;;;4914881;29;20923;-73
2022/07/27 00:59:50;;;;;;;11.47;10.80;;;20.80;99.30;;;;;;4914737;29;20459;-71
2022/07/27 01:02:17;;;;;;;11.00;10.50;;;20.80;99.30;;;;;;4914695;29;20454;-72
2022/07/27 01:04:44;;;;;;;14.33;13.37;;;20.70;99.40;;;;;;4914805;29;20462;-72
2022/07/27 01:07:11;;;;;;;13.43;12.30;;;20.70;99.50;;;;;;4914974;29;20462;-71
2022/07/27 01:09:58;;;;;;;14.50;13.30;;;20.70;99.50;;;;;;4914906;29;20462;-72
2022/07/27 01:12:26;;;;;;;14.17;13.30;;;20.60;99.70;;;;;;4917379;29;20516;-71
2022/07/27 01:14:54;;;;;;;14.00;13.23;;;20.60;99.90;;;;;;4918437;29;20454;-71
2022/07/27 01:17:21;;;;;;;13.57;12.77;;;20.50;99.90;;;;;;4918090;29;20473;-71
2022/07/27 01:19:48;;;;;;;11.37;10.77;;;20.50;99.90;;;;;;4917942;29;20451;-71
2022/07/27 01:22:16;;;;;;;11.40;10.70;;;20.50;99.90;;;;;;4917984;29;20473;-72
2022/07/27 01:24:42;;;;;;;12.57;11.87;;;20.40;99.90;;;;;;4918004;29;20493;-72
2022/07/27 01:27:09;;;;;;;13.00;12.23;;;20.40;99.90;;;;;;4918377;29;20458;-72
2022/07/27 01:29:36;;;;;;;13.70;13.10;;;20.30;99.90;;;;;;4918116;29;20454;-73
2022/07/27 01:32:04;;;;;;;13.10;12.40;;;20.20;99.90;;;;;;4917797;29;20502;-73
2022/07/27 01:34:32;;;;;;;13.73;13.13;;;20.20;99.90;;;;;;4917945;29;20450;-72
2022/07/27 01:36:59;;;;;;;13.53;12.80;;;20.00;99.90;;;;;;4918087;29;20561;-73
2022/07/27 01:39:27;;;;;;;13.63;13.00;;;20.00;99.90;;;;;;4917804;29;20840;-72
2022/07/27 01:41:54;;;;;;;14.20;13.20;;;19.90;99.90;;;;;;4918010;29;20459;-72
2022/07/27 01:44:21;;;;;;;13.20;12.40;;;19.90;99.90;;;;;;4917815;29;20837;-72
2022/07/27 01:46:47;;;;;;;13.60;12.83;;;19.90;99.90;;;;;;4917832;29;20458;-72
2022/07/27 01:49:14;;;;;;;13.23;12.43;;;19.90;99.90;;;;;;4917733;29;20493;-73
2022/07/27 01:51:41;;;;;;;12.63;11.83;;;19.80;99.90;;;;;;4917593;29;20490;-72
2022/07/27 01:54:08;;;;;;;13.97;12.60;;;19.70;99.90;;;;;;4917772;29;20460;-72
2022/07/27 01:56:36;;;;;;;14.13;13.20;;;19.70;99.90;;;;;;4917583;29;20823;-72
2022/07/27 01:59:02;;;;;;;14.50;13.60;;;19.70;99.90;;;;;;4917520;29;20450;-72
2022/07/27 02:01:29;;;;;;;14.10;13.40;;;19.70;99.90;;;;;;4917289;29;20462;-73
2022/07/27 02:03:55;;;;;;;14.93;13.83;;;19.60;99.90;;;;;;4917410;29;20462;-72
2022/07/27 02:06:22;;;;;;;12.90;12.30;;;19.60;99.90;;;;;;4917403;29;20465;-72
2022/07/27 02:08:49;;;;;;;12.93;12.33;;;19.60;99.90;;;;;;4917332;29;20458;-72
2022/07/27 02:14:01;;;;;;;13.27;12.67;;;19.60;99.90;;;;;;4917189;29;20814;-71
2022/07/27 02:16:28;;;;;;;14.60;13.70;;;19.60;99.90;;;;;;4917108;29;20473;-70
2022/07/27 02:18:55;;;;;;;14.07;13.10;;;19.50;99.90;;;;;;4917389;29;20473;-71
2022/07/27 02:21:21;;;;;;;14.50;13.70;;;19.50;99.90;;;;;;4917083;29;20470;-71
2022/07/27 02:23:48;;;;;;;13.67;12.70;;;19.40;99.90;;;;;;4917005;29;20482;-71
2022/07/27 02:26:15;;;;;;;13.73;13.03;;;19.40;99.90;;;;;;4916954;29;20450;-72
2022/07/27 02:28:41;;;;;;;13.40;12.60;;;19.30;99.90;;;;;;4916871;29;20446;-71
2022/07/27 02:31:09;;;;;;;13.83;12.90;;;19.30;99.90;;;;;;4917193;29;20474;-74
2022/07/27 02:33:36;;;;;;;13.20;12.50;;;19.40;99.90;;;;;;4916844;29;20489;-73
2022/07/27 02:36:03;;;;;;;13.70;12.90;;;19.40;99.90;;;;;;4916695;29;20458;-73
2022/07/27 02:38:30;;;;;;;13.47;12.60;;;19.40;99.90;;;;;;4916512;29;20953;-72
2022/07/27 02:40:56;;;;;;;13.07;12.47;;;19.40;99.90;;;;;;4916857;29;20454;-72
2022/07/27 02:43:23;;;;;;;13.80;12.87;;;19.50;99.90;;;;;;4916783;29;20454;-72
2022/07/27 02:45:50;;;;;;;13.77;13.07;;;19.40;99.90;;;;;;4916668;29;20825;-72
2022/07/27 02:48:18;;;;;;;15.03;14.03;;;19.40;99.90;;;;;;4916378;29;20465;-71
2022/07/27 02:50:45;;;;;;;14.30;13.50;;;19.30;99.90;;;;;;4916640;29;20457;-71
2022/07/27 02:53:11;;;;;;;14.40;13.60;;;19.30;99.90;;;;;;4916552;29;20497;-71
2022/07/27 02:55:38;;;;;;;13.63;12.83;;;19.40;99.90;;;;;;4916558;29;20463;-74
2022/07/27 02:58:05;;;;;;;13.17;12.33;;;19.40;99.90;;;;;;4916465;29;20477;-71
2022/07/27 03:00:32;;;;;;;13.70;13.00;;;19.30;99.90;;;;;;4916684;29;20854;-73
2022/07/27 03:02:59;;;;;;;13.60;12.70;;;19.30;99.90;;;;;;4915739;29;20964;-72
2022/07/27 03:05:27;;;;;;;13.30;12.70;;;19.30;99.90;;;;;;4916043;29;20877;-72
2022/07/27 03:07:54;;;;;;;13.93;13.13;;;19.20;99.90;;;;;;4914732;29;20462;-72
2022/07/27 03:10:20;;;;;;;14.80;13.80;;;19.20;99.90;;;;;;4915939;29;20454;-72
2022/07/27 03:12:48;;;;;;;14.07;13.37;;;19.00;99.90;;;;;;4915937;29;20490;-71
2022/07/27 03:15:15;;;;;;;14.40;13.70;;;19.00;99.90;;;;;;4915797;29;20465;-72
2022/07/27 03:17:42;;;;;;;13.40;12.70;;;18.90;99.90;;;;;;4915997;29;20465;-73
2022/07/27 03:20:10;;;;;;;13.03;12.23;;;18.90;99.90;;;;;;4916087;29;20485;-74
2022/07/27 03:22:38;;;;;;;13.93;13.03;;;18.80;99.90;;;;;;4915420;29;20477;-73
2022/07/27 03:25:06;;;;;;;14.60;13.90;;;18.70;99.90;;;;;;4915657;29;20941;-74
2022/07/27 03:27:32;;;;;;;14.60;13.90;;;18.70;99.90;;;;;;4915621;29;20457;-73
2022/07/27 03:29:59;;;;;;;13.53;12.70;;;18.80;99.90;;;;;;4916020;29;20457;-73
2022/07/27 03:32:26;;;;;;;14.10;13.30;;;18.80;99.90;;;;;;4915641;29;20835;-74
2022/07/27 03:34:53;;;;;;;15.20;13.93;;;18.90;99.90;;;;;;4914973;29;20442;-73
2022/07/27 03:37:19;;;;;;;14.13;13.33;;;18.90;99.90;;;;;;4915522;29;20461;-73
2022/07/27 03:39:47;;;;;;;14.20;13.40;;;18.70;99.90;;;;;;4915353;29;20550;-72
2022/07/27 03:42:14;;;;;;;14.60;13.80;;;18.70;99.90;;;;;;4915206;29;20455;-73
2022/07/27 03:44:41;;;;;;;14.13;13.33;;;18.70;99.90;;;;;;4915546;29;20454;-73
2022/07/27 03:47:07;;;;;;;13.70;13.10;;;18.70;99.90;;;;;;4915315;29;20465;-73
2022/07/27 03:49:34;;;;;;;13.93;13.23;;;18.60;99.90;;;;;;4915275;29;20489;-73
2022/07/27 03:52:01;;;;;;;13.80;12.93;;;18.60;99.90;;;;;;4915247;29;20454;-73
2022/07/27 03:54:27;;;;;;;15.30;14.30;;;18.60;99.90;;;;;;4915008;29;20465;-72
2022/07/27 03:56:55;;;;;;;15.27;14.27;;;18.60;99.90;;;;;;4915343;29;20463;-73
2022/07/27 03:59:22;;;;;;;15.77;14.87;;;18.70;99.90;;;;;;4914847;29;20458;-73
2022/07/27 04:01:49;;;;;;;15.63;14.83;;;18.70;99.90;;;;;;4914999;29;20453;-72
2022/07/27 04:04:15;;;;;;;15.63;14.40;;;18.80;99.90;;;;;;4914665;29;20455;-72
2022/07/27 04:06:42;;;;;;;16.07;15.13;;;18.70;99.90;;;;;;4914927;29;20480;-73
2022/07/27 04:09:09;;;;;;;16.20;15.30;;;18.80;99.90;;;;;;4914868;29;20455;-72
2022/07/27 04:11:35;;;;;;;15.57;14.67;;;18.80;99.90;;;;;;4914826;29;20565;-73
2022/07/27 04:14:04;;;;;;;14.90;14.10;;;18.80;99.90;;;;;;4914725;29;21004;-73
2022/07/27 04:16:31;;;;;;;15.10;14.40;;;18.80;99.90;;;;;;4914693;29;20465;-73
2022/07/27 04:18:57;;;;;;;16.67;15.87;;;18.80;99.90;;;;;;4914699;29;20462;-73
2022/07/27 04:21:24;;;;;;;16.80;15.47;;;18.90;99.90;;;;;;4915041;29;20466;-73
2022/07/27 04:23:51;;;;;;;16.07;15.37;;;19.00;99.90;;;;;;4914776;29;20877;-72
2022/07/27 04:26:17;;;;;;;15.93;15.13;;;18.90;99.90;;;;;;4914777;29;20489;-72
2022/07/27 04:28:44;;;;;;;15.77;14.97;;;19.00;99.90;;;;;;4914765;29;20450;-72
2022/07/27 04:31:12;;;;;;;14.50;13.57;;;19.10;99.90;;;;;;4914798;29;20458;-74
2022/07/27 04:33:39;;;;;;;14.33;13.30;;;19.10;99.90;;;;;;4914839;29;20489;-73
2022/07/27 04:36:07;;;;;;;16.70;15.70;;;19.20;99.90;;;;;;4914853;29;20463;-73
2022/07/27 04:38:34;;;;;;;16.03;15.23;;;19.30;99.90;;;;;;4914646;29;20461;-72
2022/07/27 04:41:01;;;;;;;15.17;14.27;;;19.30;99.90;;;;;;4914669;29;20446;-72
2022/07/27 04:43:28;;;;;;;15.60;14.70;;;19.40;99.90;;;;;;4914558;29;20450;-72
2022/07/27 04:45:54;;;;;;;15.37;14.57;;;19.40;99.90;;;;;;4915085;29;20454;-73
2022/07/27 04:48:22;;;;;;;15.80;14.30;;;19.50;99.90;;;;;;4918315;29;20461;-75
2022/07/27 04:50:49;;;;;;;15.50;14.63;;;19.50;99.90;;;;;;4918162;29;20450;-75
2022/07/27 04:53:16;;;;;;;14.23;13.63;;;19.60;99.90;;;;;;4918042;29;20854;-74
2022/07/27 04:55:44;;;;;;;14.50;13.80;;;19.60;99.90;;;;;;4918745;29;20914;-74
2022/07/27 04:58:11;;;;;;;13.93;12.63;;;19.50;99.90;;;;;;4918448;29;20462;-74
2022/07/27 05:00:38;;;;;;;14.60;13.87;;;19.50;99.90;;;;;;4918295;29;20458;-72
2022/07/27 05:03:05;;;;;;;15.60;14.70;;;19.60;99.90;;;;;;4917901;29;20442;-74
2022/07/27 05:05:33;;;;;;;15.47;14.50;;;19.50;99.90;;;;;;4916193;29;20461;-73
2022/07/27 05:07:59;;;;;;;15.37;14.57;;;19.50;99.90;;;;;;4918238;29;20472;-73
2022/07/27 05:10:26;;;;;;;16.33;15.30;;;19.50;99.90;;;;;;4918502;29;20461;-74
2022/07/27 05:12:53;;;;;;;15.57;14.77;;;19.50;99.90;;;;;;4918188;29;20512;-74
2022/07/27 05:15:20;;;;;;;14.27;13.47;;;19.60;99.90;;;;;;4917862;29;20469;-74
2022/07/27 05:17:47;;;;;;;15.57;14.60;;;19.70;99.90;;;;;;4917904;29;20450;-74
2022/07/27 05:20:14;;;;;;;15.73;14.60;;;19.70;99.90;;;;;;4917979;29;20470;-74
2022/07/27 05:22:42;;;;;;;14.37;13.27;;;19.70;99.90;;;;;;4917821;29;20478;-73
2022/07/27 05:25:10;;;;;;;15.13;14.30;;;19.80;99.90;;;;;;4918284;29;20510;-73
2022/07/27 05:27:37;;;;;;;15.27;14.40;;;20.00;99.90;;;;;;4917617;29;20791;-73
2022/07/27 05:30:05;;;;;;;16.30;15.40;;;20.00;99.90;;;;;;4917940;29;20481;-72
2022/07/27 05:32:31;;;;;;;15.70;14.67;;;20.00;99.90;;;;;;4917580;29;20989;-75
2022/07/27 05:34:58;;;;;;;13.30;12.50;;;20.00;99.90;;;;;;4917859;29;20457;-74
2022/07/27 05:37:25;;;;;;;14.53;13.63;;;19.90;99.90;;;;;;4917803;29;20462;-73
2022/07/27 05:39:53;;;;;;;14.77;14.07;;;19.90;99.90;;;;;;4917731;29;20462;-73
2022/07/27 05:42:19;;;;;;;15.17;14.07;;;20.10;99.90;;;;;;4917445;29;20453;-73
2022/07/27 05:44:46;;;;;;;14.17;13.47;;;20.10;99.90;;;;;;4917625;29;20454;-72
2022/07/27 05:47:13;;;;;;;15.50;14.80;;;20.20;99.90;;;;;;4917513;29;20462;-73
2022/07/27 05:49:39;;;;;;;13.70;12.93;;;20.40;99.90;;;;;;4917153;29;20465;-72
2022/07/27 05:52:06;;;;;;;14.57;13.47;;;20.50;99.90;;;;;;4916883;29;20463;-73
2022/07/27 05:54:33;;;;;;;13.80;12.43;;;20.50;99.90;;;;;;4916608;29;20497;-73
2022/07/27 05:57:01;;;;;;;15.07;14.37;;;20.60;99.90;;;;;;4916301;29;20463;-73
2022/07/27 05:59:30;;;;;;;15.00;14.13;;;20.70;99.90;;;;;;4917026;29;20461;-73
2022/07/27 06:01:57;;;;;;;15.43;14.73;;;20.70;99.90;;;;;;4916895;29;20503;-73
2022/07/27 06:04:24;;;;;;;15.03;14.10;;;20.70;99.90;;;;;;4916789;29;20446;-73
2022/07/27 06:09:35;;;;;;;16.53;15.60;;;20.90;99.90;;;;;;4916719;29;20429;-73
2022/07/27 06:12:03;;;;;;;14.93;14.17;;;20.70;99.90;;;;;;4916664;29;20458;-73
2022/07/27 06:14:30;;;;;;;15.40;14.27;;;20.80;99.90;;;;;;4916410;29;20489;-72
2022/07/27 06:16:56;;;;;;;15.53;14.47;;;20.90;99.90;;;;;;4916516;29;20454;-73
2022/07/27 06:19:23;;;;;;;16.30;14.97;;;20.90;99.90;;;;;;4916484;29;20485;-72
2022/07/27 06:21:50;;;;;;;15.13;14.03;;;21.10;99.90;;;;;;4916420;29;20513;-73
2022/07/27 06:24:17;;;;;;;13.87;13.17;;;21.30;99.90;;;;;;4916025;29;20490;-72
2022/07/27 06:26:44;;;;;;;15.70;14.90;;;21.30;99.90;;;;;;4916135;29;21037;-73
2022/07/27 06:29:12;;;;;;;15.40;14.60;;;21.20;99.90;;;;;;4916324;29;20502;-73
2022/07/27 06:31:39;;;;;;;14.43;13.50;;;21.00;99.90;;;;;;4915967;29;20941;-72
2022/07/27 06:34:05;;;;;;;14.30;13.57;;;20.80;99.90;;;;;;4915902;29;20498;-73
2022/07/27 06:36:32;;;;;;;15.07;14.30;;;21.20;99.90;;;;;;4916009;29;20459;-73
2022/07/27 06:38:59;;;;;;;14.47;13.77;;;21.30;99.90;;;;;;4915939;29;20453;-73
2022/07/27 06:41:25;;;;;;;14.80;13.93;;;21.70;99.90;;;;;;4916227;29;20469;-73
2022/07/27 06:43:52;;;;;;;14.63;13.83;;;21.90;99.90;;;;;;4916343;29;20458;-73
2022/07/27 06:46:20;;;;;;;14.80;14.10;;;22.10;99.90;;;;;;4916267;29;20457;-72
2022/07/27 06:48:47;;;;;;;13.63;13.00;;;22.30;99.90;;;;;;4916469;29;20851;-74
2022/07/27 06:51:13;;;;;;;13.60;13.00;;;22.50;99.90;;;;;;4915790;29;20946;-73
2022/07/27 06:53:40;;;;;;;14.33;13.73;;;22.60;99.90;;;;;;4916496;29;20865;-73
2022/07/27 06:56:07;;;;;;;13.93;13.33;;;22.70;99.90;;;;;;4915846;29;20889;-73
2022/07/27 06:58:36;;;;;;;14.63;13.83;;;22.70;99.90;;;;;;4916198;29;21214;-72
2022/07/27 07:01:03;;;;;;;14.27;13.47;;;22.30;99.90;;;;;;4915764;29;20547;-73
2022/07/27 07:03:31;;;;;;;14.00;13.30;;;22.60;99.90;;;;;;4916051;29;20455;-73
2022/07/27 07:05:58;;;;;;;14.80;13.93;;;23.00;99.90;;;;;;4916151;29;20486;-74
2022/07/27 07:08:24;;;;;;;16.97;15.50;;;23.30;99.90;;;;;;4915494;29;20827;-74
2022/07/27 07:10:51;;;;;;;13.90;13.23;;;23.80;99.20;;;;;;4915467;29;20463;-73
2022/07/27 07:13:18;;;;;;;14.90;14.00;;;24.40;97.60;;;;;;4914986;29;21048;-73
2022/07/27 07:15:45;;;;;;;14.23;13.53;;;24.50;96.70;;;;;;4915738;29;20458;-73
2022/07/27 07:18:13;;;;;;;14.23;13.63;;;24.90;95.60;;;;;;4915892;29;20980;-74
2022/07/27 07:20:41;;;;;;;14.60;13.90;;;24.50;95.90;;;;;;4916199;29;20464;-74
2022/07/27 07:23:08;;;;;;;13.40;12.80;;;24.90;95.80;;;;;;4915600;29;20490;-74
2022/07/27 07:25:36;;;;;;;14.73;14.13;;;25.10;95.30;;;;;;4915769;29;20466;-74
2022/07/27 07:28:04;;;;;;;14.00;13.20;;;25.00;95.30;;;;;;4915511;29;20451;-73
2022/07/27 07:30:31;;;;;;;13.90;13.30;;;25.20;95.00;;;;;;4915700;29;20457;-74
2022/07/27 07:32:57;;;;;;;15.10;14.30;;;25.20;94.50;;;;;;4915809;29;20932;-74
2022/07/27 07:35:24;;;;;;;13.90;13.30;;;25.50;94.10;;;;;;4915449;29;20490;-75
2022/07/27 07:37:52;;;;;;;13.90;13.20;;;25.60;93.80;;;;;;4915626;29;20458;-74
2022/07/27 07:40:20;;;;;;;15.03;14.33;;;26.00;93.40;;;;;;4915237;29;20956;-74
2022/07/27 07:42:52;;;;;;;15.67;14.80;;;26.40;92.60;;;;;;4915370;29;20454;-74
2022/07/27 07:45:19;;;;;;;14.30;13.70;;;26.60;91.50;;;;;;4914909;29;20514;-73
2022/07/27 07:47:46;;;;;;;15.50;14.70;;;26.90;91.10;;;;;;4915112;29;20512;-73
2022/07/27 07:50:13;;;;;;;14.70;14.00;;;27.10;90.30;;;;;;4915109;29;20458;-74
2022/07/27 07:52:40;;;;;;;14.10;13.50;;;27.10;90.00;;;;;;4915026;29;20461;-74
2022/07/27 07:55:09;;;;;;;14.77;13.87;;;27.00;90.20;;;;;;4915098;29;20490;-74
2022/07/27 07:57:36;;;;;;;14.30;13.60;;;26.90;90.10;;;;;;4915065;29;20458;-73
2022/07/27 08:00:03;;;;;;;15.07;14.17;;;26.80;90.10;;;;;;4915041;29;20706;-74
2022/07/27 08:02:30;;;;;;;14.40;13.60;;;26.80;90.30;;;;;;4915044;29;20454;-73
2022/07/27 08:04:57;;;;;;;14.70;13.90;;;26.50;90.10;;;;;;4915233;29;20450;-74
2022/07/27 08:07:24;;;;;;;14.53;13.77;;;26.00;90.70;;;;;;4915134;29;20465;-73
2022/07/27 08:09:50;;;;;;;13.97;13.37;;;25.70;91.80;;;;;;4915122;29;20462;-73
2022/07/27 08:12:18;;;;;;;14.20;13.60;;;26.00;92.00;;;;;;4914818;29;20824;-73
2022/07/27 08:14:45;;;;;;;15.13;14.30;;;25.90;91.40;;;;;;4914705;29;20494;-74
2022/07/27 08:17:12;;;;;;;15.50;14.60;;;25.80;91.90;;;;;;4915059;29;20458;-73
2022/07/27 08:19:38;;;;;;;14.60;13.90;;;26.10;91.90;;;;;;4914957;29;20458;-75
2022/07/27 08:22:05;;;;;;;14.50;13.90;;;26.20;91.40;;;;;;4914435;29;20486;-74
2022/07/27 08:24:32;;;;;;;14.23;13.67;;;26.30;91.10;;;;;;4909043;29;20485;-74
2022/07/27 08:26:58;;;;;;;14.17;13.40;;;26.60;91.10;;;;;;4914639;29;20463;-74
2022/07/27 08:29:26;;;;;;;14.63;13.73;;;26.70;90.20;;;;;;4914946;29;20466;-75
2022/07/27 08:31:53;;;;;;;14.63;13.93;;;26.70;90.50;;;;;;4914932;29;20477;-75
2022/07/27 08:34:20;;;;;;;14.80;14.20;;;26.90;90.10;;;;;;4914650;29;20516;-74
2022/07/27 08:36:47;;;;;;;15.60;14.80;;;26.90;90.60;;;;;;4914449;29;20462;-74
2022/07/27 08:39:13;;;;;;;15.57;14.87;;;27.30;88.40;;;;;;4914506;29;20462;-73
2022/07/27 08:41:41;;;;;;;15.33;14.33;;;27.40;88.10;;;;;;4914710;29;20454;-74
2022/07/27 08:44:11;;;;;;;15.37;14.57;;;27.40;88.20;;;;;;4914814;29;20457;-74
2022/07/27 08:46:40;;;;;;;15.53;14.53;;;28.00;86.30;;;;;;4914497;29;20454;-72
2022/07/27 08:49:07;;;;;;;14.93;14.03;;;28.60;83.70;;;;;;4914681;29;20490;-74
2022/07/27 08:51:34;;;;;;;15.53;14.63;;;28.80;82.50;;;;;;4914696;29;20450;-74
2022/07/27 08:54:01;;;;;;;15.70;15.00;;;28.80;83.00;;;;;;4914541;29;20504;-75
2022/07/27 08:56:28;;;;;;;15.50;14.60;;;29.10;80.70;;;;;;4914677;29;20454;-74
2022/07/27 08:58:54;;;;;;;15.10;14.50;;;29.50;79.00;;;;;;4914700;29;20818;-74
2022/07/27 09:01:21;;;;;;;14.97;14.20;;;29.40;79.20;;;;;;4914279;29;20806;-73
2022/07/27 09:03:49;;;;;;;15.60;14.77;;;29.80;77.80;;;;;;4913719;29;20458;-73
2022/07/27 09:06:39;;;;;;;16.20;15.30;;;30.30;76.00;;;;;;4913934;29;20458;-73
2022/07/27 09:09:06;;;;;;;15.50;14.60;;;30.50;73.80;;;;;;4913640;29;20852;-73
2022/07/27 09:11:35;;;;;;;15.80;14.90;;;29.60;76.80;;;;;;4913824;29;20457;-73
2022/07/27 09:14:03;;;;;;;15.10;14.07;;;29.80;75.80;;;;;;4913900;29;20541;-73
2022/07/27 09:16:31;;;;;;;15.43;14.73;;;30.40;73.60;;;;;;4913735;29;20458;-73
2022/07/27 09:19:01;;;;;;;16.20;15.47;;;30.30;73.70;;;;;;4913661;29;20455;-73
2022/07/27 09:21:28;;;;;;;16.03;15.33;;;30.80;71.60;;;;;;4913804;29;20470;-73
2022/07/27 09:24:05;;;;;;;16.03;15.00;;;29.90;74.00;;;;;;4913811;29;20517;-74
2022/07/27 09:26:32;;;;;;;16.03;15.23;;;29.90;73.70;;;;;;4914414;29;20461;-73
2022/07/27 09:29:01;;;;;;;16.07;15.37;;;30.00;72.60;;;;;;4913715;29;20461;-73
2022/07/27 09:31:27;;;;;;;14.97;14.27;;;30.30;71.60;;;;;;4913906;29;20447;-74
2022/07/27 09:33:56;;;;;;;15.10;14.50;;;30.50;71.20;;;;;;4917023;29;20471;-74
2022/07/27 09:36:26;;;;;;;15.53;14.73;;;31.10;70.60;;;;;;4917253;29;20454;-74
2022/07/27 09:38:55;;;;;;;15.03;14.27;;;30.50;69.90;;;;;;4915863;29;20458;-74
2022/07/27 09:41:22;;;;;;;15.17;14.53;;;30.50;70.90;;;;;;4903755;29;20552;-74
2022/07/27 09:43:51;;;;;;;14.90;14.30;;;30.50;71.00;;;;;;4917789;29;20450;-74
2022/07/27 09:46:29;;;;;;;14.90;14.30;;;30.30;69.50;;;;;;4917319;29;20450;-74
2022/07/27 09:48:56;;;;;;;14.77;14.17;;;30.20;70.00;;;;;;4917981;29;20486;-74
2022/07/27 09:51:24;;;;;;;15.43;14.27;;;30.90;69.50;;;;;;4905439;29;20889;-74
2022/07/27 09:53:52;;;;;;;16.47;15.20;;;31.40;68.70;;;;;;4920413;29;20473;-74
2022/07/27 09:56:26;;;;;;;15.00;14.40;;;31.70;66.50;;;;;;4918905;29;20457;-74
2022/07/27 09:58:55;;;;;;;15.50;14.40;;;31.20;67.60;;;;;;4936138;29;20456;-74
2022/07/27 10:01:23;;;;;;;15.53;14.73;;;31.40;68.60;;;;;;4928814;29;20513;-74
2022/07/27 10:03:52;;;;;;;15.50;14.90;;;31.50;68.70;;;;;;4915030;29;20820;-75
2022/07/27 10:06:18;;;;;;;15.13;14.53;;;31.60;67.10;;;;;;4916967;29;20494;-73
2022/07/27 10:08:49;;;;;;;15.53;14.73;;;31.60;66.80;;;;;;4917025;29;20462;-75
2022/07/27 10:11:17;;;;;;;15.20;14.40;;;31.70;64.70;;;;;;4917076;29;20462;-74
2022/07/27 10:13:44;;;;;;;14.90;14.20;;;30.60;67.10;;;;;;4917231;29;20553;-74
2022/07/27 10:16:14;;;;;;;15.87;14.80;;;30.40;67.40;;;;;;4916886;29;20909;-74
2022/07/27 10:18:50;;;;;;;15.40;14.57;;;29.80;68.00;;;;;;4916860;29;20458;-74
2022/07/27 10:21:17;;;;;;;14.90;14.10;;;30.30;68.70;;;;;;4916515;29;20454;-74
2022/07/27 10:23:56;;;;;;;14.93;14.13;;;31.20;66.60;;;;;;4916544;29;20493;-75
2022/07/27 10:26:31;;;;;;;15.20;14.60;;;31.60;66.00;;;;;;4916876;29;20913;-75
2022/07/27 10:29:00;;;;;;;15.00;14.20;;;32.30;64.60;;;;;;4916659;29;20811;-75
2022/07/27 10:31:29;;;;;;;15.07;14.40;;;32.60;63.20;;;;;;4916777;29;20458;-76
2022/07/27 10:33:57;;;;;;;15.10;14.40;;;34.20;59.90;;;;;;4917044;29;20461;-75
2022/07/27 10:36:45;;;;;;;15.53;14.93;;;34.30;57.60;;;;;;4918689;29;20513;-75
2022/07/27 10:39:32;;;;;;;14.90;14.30;;;33.90;58.20;;;;;;4917960;29;20933;-75
2022/07/27 10:42:26;;;;;;;16.03;15.13;;;34.40;56.90;;;;;;4918075;29;20464;-75
2022/07/27 10:45:03;;;;;;;14.90;14.30;;;33.20;57.70;;;;;;4916208;29;20449;-76
2022/07/27 10:47:33;;;;;;;14.00;13.30;;;31.80;59.40;;;;;;4915720;29;20459;-76
2022/07/27 10:50:19;;;;;;;13.50;12.90;;;30.00;64.50;;;;;;4917393;29;20458;-76
2022/07/27 10:52:48;;;;;;;14.67;14.00;;;30.00;65.70;;;;;;4916041;29;20466;-74
2022/07/27 10:55:47;;;;;;;15.07;14.27;;;30.30;66.00;;;;;;4916029;29;20501;-74
2022/07/27 10:58:46;;;;;;;14.67;13.97;;;31.00;62.80;;;;;;4916243;29;20455;-75
2022/07/27 11:01:13;;;;;;;15.03;14.23;;;31.30;62.40;;;;;;4916047;29;20466;-74
2022/07/27 11:06:45;;;;;;;15.50;14.80;;;30.30;61.60;;;;;;5088332;28;20514;-74
2022/07/27 11:09:12;;;;;;;14.07;13.33;;;30.40;63.90;;;;;;5088382;28;20447;-74
2022/07/27 11:11:39;;;;;;;14.57;13.87;;;31.10;62.50;;;;;;5088559;28;20928;-74
2022/07/27 11:14:05;;;;;;;14.80;14.20;;;32.70;59.20;;;;;;5088237;28;20445;-74
2022/07/27 11:16:33;;;;;;;14.30;13.67;;;33.00;58.40;;;;;;5089663;28;20469;-74
2022/07/27 11:19:02;;;;;;;13.87;13.23;;;32.90;57.00;;;;;;5089857;28;20438;-75
2022/07/27 11:21:32;;;;;;;14.47;13.87;;;33.00;55.40;;;;;;5089663;28;20470;-74
2022/07/27 11:24:02;;;;;;;13.97;13.17;;;32.70;55.20;;;;;;5088101;28;20443;-74
2022/07/27 11:26:36;;;;;;;14.03;13.33;;;32.40;55.00;;;;;;5088204;28;20496;-75
2022/07/27 11:29:02;;;;;;;14.13;13.53;;;32.10;55.00;;;;;;5087910;28;20461;-74
2022/07/27 11:31:29;;;;;;;14.70;14.00;;;32.30;53.50;;;;;;5087682;28;20450;-75
2022/07/27 11:33:57;;;;;;;13.97;13.33;;;32.10;54.00;;;;;;5088095;28;20457;-74
2022/07/27 11:36:36;;;;;;;13.83;13.33;;;31.80;55.10;;;;;;5087983;28;20452;-74
2022/07/27 11:39:06;;;;;;;14.60;14.00;;;31.20;57.20;;;;;;5088153;28;20442;-74
2022/07/27 11:41:34;;;;;;;13.97;13.40;;;31.00;58.00;;;;;;5087805;28;20700;-74
2022/07/27 11:44:03;;;;;;;13.60;12.90;;;30.70;59.10;;;;;;5087853;28;20465;-74
2022/07/27 11:46:31;;;;;;;13.90;13.30;;;30.30;60.20;;;;;;5087686;28;20498;-73
2022/07/27 11:49:00;;;;;;;14.20;13.50;;;30.50;60.00;;;;;;5088280;28;20450;-74
2022/07/27 11:51:28;;;;;;;13.80;13.10;;;30.30;59.30;;;;;;5088564;28;20451;-73
2022/07/27 11:53:57;;;;;;;13.77;13.27;;;30.20;59.00;;;;;;5087900;28;20450;-74
2022/07/27 11:56:27;;;;;;;14.37;13.67;;;30.50;58.40;;;;;;5088174;28;20477;-74
2022/07/27 11:58:58;;;;;;;13.40;12.90;;;31.10;56.60;;;;;;5087812;28;20814;-75
2022/07/27 12:01:30;;;;;;;13.70;13.20;;;32.70;54.90;;;;;;5087390;28;20446;-75
2022/07/27 12:04:19;;;;;;;14.10;13.40;;;33.30;53.70;;;;;;5087586;28;20453;-75
2022/07/27 12:06:49;;;;;;;13.47;12.97;;;33.20;52.50;;;;;;5087116;28;20489;-74
2022/07/27 12:09:18;;;;;;;14.57;13.87;;;33.60;50.80;;;;;;5087208;28;20451;-75
2022/07/27 12:11:49;;;;;;;13.50;13.00;;;34.00;50.00;;;;;;5087396;28;20450;-74
2022/07/27 12:14:17;;;;;;;14.20;13.60;;;34.50;49.50;;;;;;5087194;28;20450;-74
2022/07/27 12:16:44;;;;;;;13.77;13.27;;;33.90;50.30;;;;;;5080801;28;20451;-75
2022/07/27 12:19:11;;;;;;;13.03;12.27;;;32.60;52.60;;;;;;5073709;28;20458;-74
2022/07/27 12:21:38;;;;;;;13.53;12.80;;;31.20;55.00;;;;;;5073466;28;20573;-74
2022/07/27 12:24:05;;;;;;;14.07;13.30;;;30.10;57.40;;;;;;5073483;28;20937;-74
2022/07/27 12:26:32;;;;;;;13.57;12.97;;;30.40;56.50;;;;;;5073313;28;20471;-74
2022/07/27 12:29:07;;;;;;;14.57;13.67;;;30.40;56.00;;;;;;5073541;28;20447;-74
2022/07/27 12:31:36;;;;;;;14.00;13.40;;;30.30;55.10;;;;;;5073236;28;20453;-74
2022/07/27 12:34:05;;;;;;;14.13;13.43;;;30.20;55.80;;;;;;5073425;28;20697;-74
2022/07/27 12:36:32;;;;;;;13.30;12.80;;;30.40;55.40;;;;;;5073605;28;20816;-74
2022/07/27 12:39:00;;;;;;;13.73;13.13;;;30.20;55.10;;;;;;5073351;28;20455;-72
2022/07/27 12:41:29;;;;;;;12.80;12.30;;;30.70;55.00;;;;;;5073364;28;20462;-73